Time;durP1;ratioP1;P1;durP2;ratioP2;P2;SDS_P1;SDS_P2;PMS_P1;PMS_P2;Temp;Humidity;BMP_temperature;BMP_pressure;BME280_temperature;BME280_humidity;BME280_pressure;Samples;Min_cycle;Max_cycle;Signal;HPM_P1;HPM_P2
2023/02/16 00:01:34;;;;;;;27.23;14.48;;;;;;;-2.28;74.38;96055.22;5032320;28;20033;-75
2023/02/16 00:04:00;;;;;;;28.55;15.23;;;;;;;-2.31;74.63;96052.72;5067021;28;20478;-75
2023/02/16 00:06:26;;;;;;;30.77;16.00;;;;;;;-2.38;74.64;96043.47;5046414;28;20041;-75
2023/02/16 00:08:52;;;;;;;29.00;14.88;;;;;;;-2.45;74.85;96033.38;5049025;28;20514;-76
2023/02/16 00:14:08;;;;;;;29.27;15.10;;;;;;;-2.56;75.75;96044.56;5047920;28;20044;-76
2023/02/16 00:16:34;;;;;;;28.40;15.00;;;;;;;-2.41;75.86;96055.41;5047812;28;20110;-75
2023/02/16 00:18:59;;;;;;;26.85;14.15;;;;;;;-2.42;75.49;96044.38;5049497;28;20123;-76
2023/02/16 00:21:25;;;;;;;28.08;15.90;;;;;;;-2.33;75.44;96054.44;5048911;28;20036;-75
2023/02/16 00:23:51;;;;;;;26.85;15.07;;;;;;;-2.36;75.28;96041.75;5046313;28;20075;-75
2023/02/16 00:26:21;;;;;;;27.80;14.05;;;;;;;-2.23;75.47;96036.47;5078955;28;20116;-76
2023/02/16 00:28:54;;;;;;;27.98;14.20;;;;;;;-1.98;75.14;96044.63;5082570;28;20596;-76
2023/02/16 00:31:21;;;;;;;31.70;14.93;;;;;;;-1.98;75.48;96031.91;5078197;28;20057;-76
2023/02/16 00:33:46;;;;;;;28.92;14.93;;;;;;;-1.92;75.35;96040.31;5081142;28;20039;-75
2023/02/16 00:36:12;;;;;;;28.05;15.15;;;;;;;-2.04;75.58;96040.47;5064897;28;20037;-76
2023/02/16 00:38:37;;;;;;;23.10;13.88;;;;;;;-2.19;75.10;96028.78;5064975;28;20029;-76
2023/02/16 00:41:03;;;;;;;25.17;14.13;;;;;;;-2.05;74.35;96042.19;5048064;28;20101;-76
2023/02/16 00:43:28;;;;;;;25.10;14.07;;;;;;;-2.08;73.78;96033.75;5046507;28;20576;-76
2023/02/16 00:45:55;;;;;;;24.17;13.82;;;;;;;-2.10;73.89;96041.38;5047324;28;20464;-75
2023/02/16 00:48:20;;;;;;;27.05;14.18;;;;;;;-2.14;73.50;96044.03;5064829;28;20489;-75
2023/02/16 00:50:46;;;;;;;29.10;14.93;;;;;;;-2.21;73.72;96029.69;5048707;28;20111;-75
2023/02/16 00:53:14;;;;;;;25.42;14.13;;;;;;;-2.42;74.16;96044.38;5066039;28;20101;-76
2023/02/16 00:55:40;;;;;;;27.27;13.68;;;;;;;-2.52;74.29;96018.19;5047784;28;20063;-75
2023/02/16 00:58:24;;;;;;;24.40;13.30;;;;;;;-2.49;73.98;96020.69;5052559;28;20082;-75
2023/02/16 01:00:52;;;;;;;26.05;13.85;;;;;;;-2.58;74.21;96015.72;5067625;28;20024;-75
2023/02/16 01:03:20;;;;;;;27.17;14.50;;;;;;;-2.60;74.39;96042.06;5069136;28;20458;-75
2023/02/16 01:05:45;;;;;;;28.58;15.50;;;;;;;-2.45;73.82;96041.88;5031940;28;20044;-75
2023/02/16 01:13:25;;;;;;;25.70;14.15;;;;;;;-2.60;73.11;96009.81;5069675;28;20149;-75
2023/02/16 01:15:51;;;;;;;26.17;14.23;;;;;;;-2.84;74.04;96010.09;5085445;28;20048;-75
2023/02/16 01:18:17;;;;;;;24.13;12.70;;;;;;;-2.65;73.68;96036.16;5068888;28;20034;-75
2023/02/16 01:20:43;;;;;;;25.92;13.95;;;;;;;-2.81;74.25;96010.94;5069890;28;20024;-75
2023/02/16 01:23:08;;;;;;;28.70;15.40;;;;;;;-2.65;74.13;96031.09;5034954;28;20040;-75
2023/02/16 01:25:35;;;;;;;28.92;16.73;;;;;;;-2.91;74.84;96004.25;5069153;28;20887;-76
2023/02/16 01:28:00;;;;;;;28.60;16.25;;;;;;;-2.64;73.92;96020.06;5068692;28;20048;-76
2023/02/16 01:30:26;;;;;;;31.15;18.10;;;;;;;-2.58;73.54;96022.53;5052245;28;20045;-75
2023/02/16 01:32:54;;;;;;;33.00;17.25;;;;;;;-2.64;73.04;96025.16;5049896;28;20033;-75
2023/02/16 01:35:31;;;;;;;31.83;16.92;;;;;;;-2.92;74.03;96023.75;5051129;28;20044;-75
2023/02/16 01:37:59;;;;;;;30.63;15.75;;;;;;;-2.87;73.92;96021.19;5086013;28;20209;-75
2023/02/16 01:40:37;;;;;;;30.88;15.98;;;;;;;-3.05;74.22;96016.28;5083419;28;20101;-75
2023/02/16 01:43:25;;;;;;;26.00;14.70;;;;;;;-3.06;74.30;96009.53;5051352;28;20139;-75
2023/02/16 01:46:03;;;;;;;29.40;16.45;;;;;;;-3.24;74.99;96005.47;5066661;28;20035;-75
2023/02/16 01:48:29;;;;;;;27.42;14.52;;;;;;;-3.27;74.67;95975.00;5050701;28;20041;-75
2023/02/16 01:51:03;;;;;;;27.73;15.70;;;;;;;-3.23;74.83;96007.13;5068111;28;20028;-76
2023/02/16 01:53:36;;;;;;;35.47;18.58;;;;;;;-3.58;75.25;95989.69;5067660;28;20036;-75
2023/02/16 01:56:03;;;;;;;34.67;17.67;;;;;;;-3.45;75.77;96001.44;5049731;28;20025;-75
2023/02/16 01:58:34;;;;;;;33.35;18.83;;;;;;;-3.44;75.94;95996.31;5052469;28;20035;-76
2023/02/16 02:01:00;;;;;;;35.67;18.85;;;;;;;-3.43;76.28;95999.69;5084839;28;20198;-75
2023/02/16 02:06:15;;;;;;;31.05;15.18;;;;;;;-3.60;76.64;96003.22;5071741;28;20549;-75
2023/02/16 02:09:03;;;;;;;29.73;15.23;;;;;;;-3.57;76.30;95992.22;5070849;28;20036;-75
2023/02/16 02:11:42;;;;;;;29.75;15.40;;;;;;;-3.64;76.45;96005.84;5070814;28;20036;-75
2023/02/16 02:14:14;;;;;;;26.17;13.40;;;;;;;-3.68;76.74;96010.06;5047693;28;20037;-76
2023/02/16 02:16:40;;;;;;;26.17;14.02;;;;;;;-3.73;76.17;96004.22;5048058;28;20040;-77
2023/02/16 02:19:05;;;;;;;29.60;14.75;;;;;;;-3.89;77.69;96008.56;5068108;28;20040;-76
2023/02/16 02:25:13;;;;;;;25.00;12.45;;;;;;;-3.71;77.45;96010.09;5068171;28;20047;-76
2023/02/16 02:27:41;;;;;;;22.52;11.38;;;;;;;-3.50;77.24;96010.81;5069227;28;20035;-77
2023/02/16 02:30:36;;;;;;;27.45;12.90;;;;;;;-3.44;76.90;96003.94;5064615;28;20041;-76
2023/02/16 02:33:17;;;;;;;25.45;12.75;;;;;;;-3.31;76.75;96003.84;5096641;28;20509;-76
2023/02/16 02:35:54;;;;;;;25.53;13.63;;;;;;;-3.44;76.64;95996.31;5065861;28;20064;-76
2023/02/16 02:38:58;;;;;;;28.67;14.25;;;;;;;-3.30;75.52;95996.19;5034823;28;20111;-76
2023/02/16 02:44:26;;;;;;;26.13;11.82;;;;;;;-3.22;75.77;95984.25;5053057;28;20055;-76
2023/02/16 02:46:51;;;;;;;20.90;10.73;;;;;;;-3.04;75.89;95992.53;5066721;28;20033;-76
2023/02/16 02:49:17;;;;;;;19.33;10.73;;;;;;;-2.83;75.63;95999.91;5067620;28;20476;-76
2023/02/16 02:51:42;;;;;;;22.17;11.70;;;;;;;-2.84;75.48;95975.34;5031808;28;20033;-76
2023/02/16 03:02:57;;;;;;;17.40;10.23;;;;;;;-2.65;74.81;95992.91;4994934;28;19924;-75
2023/02/16 03:05:22;;;;;;;22.63;11.75;;;;;;;-2.82;74.34;95993.97;5053011;28;20037;-76
2023/02/16 03:07:48;;;;;;;22.80;11.07;;;;;;;-2.96;74.96;95965.31;5048572;28;20056;-76
2023/02/16 03:13:29;;;;;;;23.08;12.00;;;;;;;-2.75;74.12;96005.75;5067604;28;20473;-75
2023/02/16 03:15:55;;;;;;;22.05;11.45;;;;;;;-2.90;74.04;95998.28;5084145;28;20141;-75
2023/02/16 03:29:21;;;;;;;24.15;12.13;;;;;;;-3.21;73.88;95988.47;5051594;28;20090;-75
2023/02/16 03:31:51;;;;;;;25.90;12.73;;;;;;;-3.33;74.62;95949.66;5029919;28;20044;-75
2023/02/16 03:34:17;;;;;;;20.05;11.40;;;;;;;-3.02;74.39;95986.56;5065528;28;20115;-76
2023/02/16 03:36:44;;;;;;;23.63;11.45;;;;;;;-2.85;73.90;95983.00;5049860;28;20103;-76
2023/02/16 03:39:10;;;;;;;23.00;11.77;;;;;;;-2.74;74.07;95984.53;5049701;28;20040;-76
2023/02/16 03:41:42;;;;;;;25.17;12.77;;;;;;;-2.65;74.43;95992.91;5062412;28;20032;-76
2023/02/16 03:44:07;;;;;;;21.48;11.38;;;;;;;-2.52;74.24;95984.28;5032508;28;20051;-76
2023/02/16 03:46:33;;;;;;;23.38;11.48;;;;;;;-2.47;74.09;95985.06;5066487;28;20036;-76
2023/02/16 03:48:58;;;;;;;22.50;11.40;;;;;;;-2.47;73.79;95974.88;5049619;28;20083;-76
2023/02/16 03:51:24;;;;;;;21.80;11.93;;;;;;;-2.28;73.78;95988.19;5048922;28;20036;-76
2023/02/16 03:53:49;;;;;;;29.38;13.68;;;;;;;-2.20;73.24;95993.16;5033045;28;20032;-75
2023/02/16 03:56:15;;;;;;;26.70;13.85;;;;;;;-2.18;73.31;95983.81;5071046;28;20017;-76
2023/02/16 03:58:40;;;;;;;23.70;12.02;;;;;;;-2.13;72.86;95995.59;5049020;28;20028;-76
2023/02/16 04:01:06;;;;;;;23.20;12.05;;;;;;;-2.04;72.59;95990.38;5063950;28;20543;-76
2023/02/16 04:03:32;;;;;;;22.48;11.88;;;;;;;-2.06;72.36;95981.09;5049286;28;20066;-76
2023/02/16 04:05:58;;;;;;;23.48;12.75;;;;;;;-2.23;72.72;95967.75;5049309;28;20037;-76
2023/02/16 04:08:23;;;;;;;25.15;13.02;;;;;;;-2.33;72.57;95988.25;5048585;28;20036;-76
2023/02/16 04:10:48;;;;;;;21.33;11.57;;;;;;;-2.40;72.87;95986.63;5047449;28;20024;-76
2023/02/16 04:13:14;;;;;;;23.83;12.73;;;;;;;-2.43;73.18;95980.75;5066493;28;20048;-76
2023/02/16 04:15:40;;;;;;;23.70;12.27;;;;;;;-2.47;73.09;95964.69;5065722;28;20043;-76
2023/02/16 04:18:06;;;;;;;22.10;12.32;;;;;;;-2.31;73.08;95976.34;5048993;28;20426;-76
2023/02/16 04:20:32;;;;;;;27.17;13.60;;;;;;;-2.39;73.28;95962.88;5063323;28;20033;-76
2023/02/16 04:23:00;;;;;;;26.67;13.50;;;;;;;-2.41;73.43;95977.34;5066178;28;20422;-76
2023/02/16 04:25:25;;;;;;;27.73;14.75;;;;;;;-2.36;73.09;95974.72;5050942;28;20891;-76
2023/02/16 04:27:51;;;;;;;26.33;13.30;;;;;;;-2.35;73.11;95976.41;5048529;28;20486;-76
2023/02/16 04:30:21;;;;;;;27.67;13.50;;;;;;;-2.32;72.87;95964.47;5046956;28;20263;-75
2023/02/16 04:32:47;;;;;;;25.55;13.15;;;;;;;-2.37;72.82;95966.22;5052749;28;20032;-76
2023/02/16 04:35:13;;;;;;;32.10;16.73;;;;;;;-2.30;71.54;95989.91;5053704;28;20540;-76
2023/02/16 04:37:38;;;;;;;50.53;27.98;;;;;;;-2.39;71.93;95983.25;5036520;28;20028;-76
2023/02/16 04:40:05;;;;;;;59.67;33.28;;;;;;;-2.59;72.41;95963.16;5068339;28;20047;-76
2023/02/16 04:42:32;;;;;;;68.53;35.63;;;;;;;-2.61;72.24;95982.69;5069096;28;20120;-76
2023/02/16 04:44:58;;;;;;;115.70;50.45;;;;;;;-2.74;72.60;95971.81;5070409;28;20071;-76
2023/02/16 04:47:25;;;;;;;84.07;42.47;;;;;;;-2.83;72.47;95959.22;5053282;28;20024;-76
2023/02/16 04:49:51;;;;;;;86.90;47.13;;;;;;;-2.63;72.16;95983.56;5067926;28;20044;-76
2023/02/16 04:52:17;;;;;;;99.68;51.85;;;;;;;-2.86;72.63;95982.16;5051479;28;20040;-76
2023/02/16 04:54:42;;;;;;;94.28;47.25;;;;;;;-2.88;72.02;95960.97;5037727;28;20087;-76
2023/02/16 04:57:08;;;;;;;81.80;39.88;;;;;;;-2.92;71.97;95977.97;5070861;28;20032;-76
2023/02/16 04:59:33;;;;;;;76.18;40.65;;;;;;;-2.93;71.93;95993.25;5052731;28;20036;-76
2023/02/16 05:01:59;;;;;;;59.13;31.60;;;;;;;-3.28;72.96;95999.56;5050089;28;20414;-75
2023/02/16 05:04:24;;;;;;;57.42;28.83;;;;;;;-3.26;72.78;95997.00;5053150;28;20292;-76
2023/02/16 05:06:49;;;;;;;43.83;22.92;;;;;;;-3.15;71.45;96010.44;5047975;28;20025;-76
2023/02/16 05:09:18;;;;;;;51.15;25.27;;;;;;;-3.32;71.55;96007.22;5066674;28;20044;-76
2023/02/16 05:14:41;;;;;;;48.17;22.25;;;;;;;-3.51;73.04;96001.47;5055593;28;20209;-76
2023/02/16 05:17:20;;;;;;;44.78;22.77;;;;;;;-3.60;72.95;95999.84;5051894;28;20068;-76
2023/02/16 05:19:50;;;;;;;37.80;20.77;;;;;;;-3.99;74.46;96004.41;5082173;28;20033;-76
2023/02/16 05:22:19;;;;;;;37.75;18.50;;;;;;;-4.02;74.61;96009.50;5051666;28;20035;-75
2023/02/16 05:24:45;;;;;;;39.97;18.40;;;;;;;-3.84;73.28;95998.38;5057975;28;20410;-76
2023/02/16 05:27:24;;;;;;;37.80;17.35;;;;;;;-3.83;73.24;96005.13;5035483;28;20021;-76
2023/02/16 05:29:49;;;;;;;31.63;15.45;;;;;;;-3.84;73.33;96013.63;5050970;28;20032;-75
2023/02/16 05:32:15;;;;;;;31.75;16.08;;;;;;;-4.07;73.60;96007.03;5051221;28;20052;-76
2023/02/16 05:34:43;;;;;;;41.17;18.98;;;;;;;-4.15;74.79;96007.91;5068787;28;20037;-76
2023/02/16 05:37:08;;;;;;;39.67;18.67;;;;;;;-4.24;74.78;95988.50;5051980;28;20032;-75
2023/02/16 05:39:34;;;;;;;39.85;19.33;;;;;;;-4.13;74.66;95999.41;5053157;28;20463;-75
2023/02/16 05:41:59;;;;;;;38.03;16.98;;;;;;;-4.06;74.58;96013.78;5050616;28;20402;-75
2023/02/16 05:44:29;;;;;;;34.50;17.20;;;;;;;-4.09;74.72;96012.97;5051280;28;20033;-75
2023/02/16 05:46:55;;;;;;;46.25;22.77;;;;;;;-3.94;75.04;96017.06;5085350;28;20028;-76
2023/02/16 05:49:21;;;;;;;43.88;20.08;;;;;;;-4.00;74.67;96023.03;5070814;28;20029;-76
2023/02/16 05:51:46;;;;;;;39.05;18.45;;;;;;;-4.16;75.52;96017.22;5049249;28;20016;-76
2023/02/16 05:54:16;;;;;;;45.03;23.60;;;;;;;-4.06;75.02;96001.06;5051462;28;20041;-75
2023/02/16 05:56:43;;;;;;;44.40;21.38;;;;;;;-4.03;75.14;96029.84;5051973;28;20497;-76
2023/02/16 05:59:09;;;;;;;53.58;24.55;;;;;;;-4.01;75.21;96023.03;5067522;28;20086;-76
2023/02/16 06:01:34;;;;;;;50.97;23.17;;;;;;;-4.08;76.10;96034.94;5048973;28;20032;-75
2023/02/16 06:03:59;;;;;;;44.28;23.02;;;;;;;-4.17;75.95;96007.94;5051610;28;20082;-75
2023/02/16 06:06:25;;;;;;;38.83;19.25;;;;;;;-4.19;76.50;96021.47;5084313;28;20395;-75
2023/02/16 06:08:50;;;;;;;38.90;19.73;;;;;;;-3.92;75.58;96012.84;5051309;28;20413;-75
2023/02/16 06:14:01;;;;;;;45.85;20.75;;;;;;;-3.79;75.31;96024.56;5068918;28;20051;-76
2023/02/16 06:16:30;;;;;;;44.20;21.42;;;;;;;-3.87;75.69;96027.19;5051187;28;20032;-76
2023/02/16 06:18:56;;;;;;;44.45;21.77;;;;;;;-3.71;75.70;96035.50;5068159;28;20071;-76
2023/02/16 06:21:21;;;;;;;44.05;23.08;;;;;;;-3.58;75.96;96045.59;5049116;28;20060;-76
2023/02/16 06:23:47;;;;;;;37.88;18.92;;;;;;;-3.47;75.45;96053.97;5051836;28;20494;-76
2023/02/16 06:26:15;;;;;;;47.38;23.67;;;;;;;-3.58;74.93;96035.44;5067700;28;20099;-76
2023/02/16 06:28:40;;;;;;;50.25;23.05;;;;;;;-3.49;75.40;96056.50;5066476;28;20043;-76
2023/02/16 06:31:06;;;;;;;47.63;22.67;;;;;;;-3.51;75.16;96042.13;5047741;28;20452;-76
2023/02/16 06:33:31;;;;;;;40.58;20.38;;;;;;;-3.42;75.08;96054.78;5067158;28;20040;-76
2023/02/16 06:35:57;;;;;;;40.17;21.38;;;;;;;-3.41;74.58;96025.94;5066630;28;20482;-76
2023/02/16 06:38:22;;;;;;;45.13;23.10;;;;;;;-3.22;73.67;96046.97;5065931;28;20414;-76
2023/02/16 06:40:53;;;;;;;41.45;21.90;;;;;;;-2.96;73.18;96069.56;5048580;28;20029;-76
2023/02/16 06:43:18;;;;;;;47.80;22.75;;;;;;;-2.98;72.89;96079.78;5066011;28;20124;-76
2023/02/16 06:45:44;;;;;;;42.92;22.42;;;;;;;-3.09;73.69;96071.41;5067506;28;20028;-75
2023/02/16 06:48:10;;;;;;;47.22;23.10;;;;;;;-3.19;74.90;96079.97;5050325;28;20128;-76
2023/02/16 06:50:35;;;;;;;51.10;24.13;;;;;;;-3.03;74.42;96073.06;5067685;28;20028;-75
2023/02/16 06:53:01;;;;;;;54.10;26.75;;;;;;;-2.90;74.28;96077.13;5049351;28;20036;-76
2023/02/16 06:55:28;;;;;;;60.85;29.48;;;;;;;-2.87;74.24;96076.25;5066554;28;20037;-76
2023/02/16 06:57:54;;;;;;;72.47;33.58;;;;;;;-2.77;73.92;96071.06;5050623;28;20438;-74
2023/02/16 07:00:19;;;;;;;59.28;29.02;;;;;;;-1.57;71.23;96069.50;5062988;28;20037;-76
2023/02/16 07:02:45;;;;;;;66.95;31.40;;;;;;;1.09;63.79;96070.84;5064073;28;20652;-76
2023/02/16 07:05:11;;;;;;;55.35;27.83;;;;;;;1.90;58.95;96013.13;5032540;28;20495;-76
2023/02/16 07:07:36;;;;;;;54.28;30.17;;;;;;;3.46;54.45;96055.97;5067253;28;20028;-76
2023/02/16 07:10:05;;;;;;;59.90;31.52;;;;;;;4.68;50.90;96045.38;5063175;28;20024;-76
2023/02/16 07:12:31;;;;;;;59.05;32.05;;;;;;;5.30;49.49;96047.09;5064009;28;20049;-76
2023/02/16 07:14:56;;;;;;;59.47;29.73;;;;;;;6.09;47.27;96029.03;5049522;28;20039;-76
2023/02/16 07:17:22;;;;;;;59.42;33.28;;;;;;;7.07;44.80;96039.84;5065377;28;20029;-76
2023/02/16 07:19:49;;;;;;;62.65;34.53;;;;;;;7.27;43.66;96031.13;5046936;28;20025;-77
2023/02/16 07:22:16;;;;;;;59.10;32.33;;;;;;;7.95;42.74;96032.81;5059866;28;20109;-76
2023/02/16 07:24:41;;;;;;;62.70;37.45;;;;;;;7.94;41.87;96028.53;5070070;28;20024;-77
2023/02/16 07:27:07;;;;;;;59.53;36.35;;;;;;;7.41;43.19;96017.50;5064305;28;20514;-77
2023/02/16 07:29:33;;;;;;;58.58;32.95;;;;;;;6.93;44.24;96013.88;5063963;28;20040;-77
2023/02/16 07:31:58;;;;;;;53.33;33.47;;;;;;;7.17;44.03;95980.81;5062418;28;20060;-77
2023/02/16 07:34:26;;;;;;;51.13;30.92;;;;;;;7.53;43.77;96014.28;5048233;28;20024;-76
2023/02/16 07:36:52;;;;;;;53.42;31.65;;;;;;;6.94;45.12;96015.56;5045702;28;20032;-77
2023/02/16 07:39:17;;;;;;;53.78;33.22;;;;;;;6.62;46.16;96010.19;5062466;28;20518;-76
2023/02/16 07:41:42;;;;;;;77.38;40.88;;;;;;;7.34;45.02;96008.38;5059047;28;20232;-77
2023/02/16 07:44:08;;;;;;;57.17;33.42;;;;;;;7.90;44.03;95996.81;5024774;28;20070;-77
2023/02/16 07:46:33;;;;;;;56.75;32.60;;;;;;;8.42;42.14;96001.78;5042751;28;20013;-76
2023/02/16 07:48:59;;;;;;;49.90;29.98;;;;;;;8.55;42.99;95977.78;5068339;28;20529;-76
2023/02/16 07:51:26;;;;;;;48.60;29.13;;;;;;;8.48;41.93;95998.84;5060067;28;20421;-76
2023/02/16 07:53:51;;;;;;;56.75;33.08;;;;;;;8.86;42.46;96001.03;5078216;28;20036;-76
2023/02/16 07:56:25;;;;;;;58.28;36.53;;;;;;;10.32;40.27;95999.25;5067323;28;20033;-76
2023/02/16 07:58:51;;;;;;;57.40;35.63;;;;;;;11.11;38.57;95994.09;5048914;28;20089;-76
2023/02/16 08:01:17;;;;;;;57.35;35.17;;;;;;;11.45;38.18;96007.47;5063772;28;20029;-76
2023/02/16 08:03:42;;;;;;;63.67;39.63;;;;;;;11.91;36.73;95993.09;5065843;28;20051;-77
2023/02/16 08:06:08;;;;;;;72.70;44.08;;;;;;;12.44;36.33;96004.94;5068470;28;20025;-77
2023/02/16 08:08:33;;;;;;;65.97;42.35;;;;;;;12.70;35.36;95989.19;5066041;28;20025;-77
2023/02/16 08:10:59;;;;;;;66.75;41.90;;;;;;;13.14;34.75;96005.97;5063473;28;20028;-77
2023/02/16 08:13:24;;;;;;;59.38;38.80;;;;;;;13.80;33.58;96006.25;5063291;28;20513;-77
2023/02/16 08:15:50;;;;;;;57.83;39.03;;;;;;;13.48;33.65;96014.75;5064625;28;20502;-76
2023/02/16 08:18:15;;;;;;;65.25;41.50;;;;;;;14.03;33.38;96020.16;5033126;28;20120;-78
2023/02/16 08:20:41;;;;;;;61.63;37.95;;;;;;;13.84;32.55;95995.44;5049114;28;20414;-78
2023/02/16 08:23:06;;;;;;;64.07;40.40;;;;;;;13.47;33.31;96001.84;5048694;28;20043;-78
2023/02/16 08:25:38;;;;;;;62.95;39.40;;;;;;;11.55;36.79;96013.69;5049229;28;20043;-78
2023/02/16 08:28:05;;;;;;;64.35;40.75;;;;;;;9.78;40.47;96023.31;5032427;28;20041;-78
2023/02/16 08:30:33;;;;;;;69.32;42.90;;;;;;;9.17;41.96;96009.63;5064676;28;20036;-78
2023/02/16 08:32:59;;;;;;;67.70;41.15;;;;;;;9.09;42.64;96035.16;5066613;28;20025;-78
2023/02/16 08:35:26;;;;;;;65.28;40.28;;;;;;;8.02;44.65;96009.13;5064006;28;20033;-77
2023/02/16 08:37:52;;;;;;;62.33;38.28;;;;;;;8.14;45.07;96027.50;5065864;28;20028;-77
2023/02/16 08:40:17;;;;;;;66.85;40.05;;;;;;;7.92;45.48;96010.50;5047951;28;20587;-77
2023/02/16 08:42:43;;;;;;;65.13;39.08;;;;;;;7.69;47.24;96034.16;5066217;28;20539;-77
2023/02/16 08:45:08;;;;;;;69.15;38.25;;;;;;;7.39;47.23;96034.84;5064631;28;20102;-77
2023/02/16 08:47:35;;;;;;;64.03;39.38;;;;;;;6.59;49.29;96025.84;5065828;28;20063;-77
2023/02/16 08:50:00;;;;;;;62.65;37.10;;;;;;;6.59;49.99;96025.84;5062583;28;20413;-77
2023/02/16 08:52:26;;;;;;;61.22;36.78;;;;;;;6.20;50.21;96008.75;5066455;28;20039;-77
2023/02/16 08:54:52;;;;;;;66.57;37.40;;;;;;;6.08;51.13;96019.66;5064460;28;20430;-77
2023/02/16 08:57:18;;;;;;;64.90;37.15;;;;;;;5.83;51.75;96010.41;5066710;28;20032;-77
2023/02/16 08:59:43;;;;;;;70.32;38.70;;;;;;;5.75;52.35;96032.28;5034038;28;20043;-77
2023/02/16 09:02:09;;;;;;;67.75;37.58;;;;;;;5.48;53.31;96024.84;5046779;28;20102;-77
2023/02/16 09:04:35;;;;;;;64.70;36.92;;;;;;;5.29;54.27;96037.72;5048650;28;20498;-76
2023/02/16 09:07:01;;;;;;;64.57;36.08;;;;;;;4.64;55.76;96012.94;5065438;28;20028;-77
2023/02/16 09:09:27;;;;;;;67.35;36.78;;;;;;;4.98;55.89;96029.56;5031723;28;20517;-78
2023/02/16 09:11:52;;;;;;;65.35;35.90;;;;;;;4.78;56.28;96007.22;5046018;28;20045;-79
2023/02/16 09:14:18;;;;;;;66.80;35.25;;;;;;;4.91;56.34;96029.00;5048494;28;20036;-76
2023/02/16 09:16:44;;;;;;;60.88;33.65;;;;;;;5.02;56.28;96023.41;5049084;28;20032;-81
2023/02/16 09:19:14;;;;;;;68.72;37.08;;;;;;;5.01;56.57;96008.84;5086330;28;20103;-79
2023/02/16 09:21:39;;;;;;;61.30;34.55;;;;;;;4.68;57.86;96011.91;5050357;28;20498;-78
2023/02/16 09:24:07;;;;;;;60.80;35.22;;;;;;;4.82;57.05;96003.63;5050057;28;20040;-78
2023/02/16 09:26:35;;;;;;;65.53;34.78;;;;;;;4.93;57.18;96016.88;5086720;28;20036;-78
2023/02/16 09:29:01;;;;;;;64.18;34.03;;;;;;;4.83;57.29;96011.28;5068740;28;20036;-80
2023/02/16 09:31:28;;;;;;;62.95;33.65;;;;;;;4.92;57.02;96010.91;5050341;28;20033;-76
2023/02/16 09:33:59;;;;;;;67.90;35.42;;;;;;;5.06;56.85;96004.34;5102437;28;20387;-76
2023/02/16 09:36:26;;;;;;;63.25;34.00;;;;;;;5.08;56.24;96003.38;5102364;27;20033;-76
2023/02/16 09:38:51;;;;;;;57.63;31.17;;;;;;;5.20;56.02;95998.59;5052154;28;20518;-76
2023/02/16 09:41:22;;;;;;;61.33;31.77;;;;;;;5.33;55.72;95995.44;5064190;28;20032;-76
2023/02/16 09:43:52;;;;;;;56.40;31.03;;;;;;;5.37;55.74;95991.81;5068507;28;20036;-77
2023/02/16 09:46:19;;;;;;;50.47;29.30;;;;;;;5.23;55.48;95995.91;5066301;28;20040;-76
2023/02/16 09:48:47;;;;;;;55.95;28.70;;;;;;;5.05;56.16;95992.38;5079693;28;20430;-76
2023/02/16 09:51:22;;;;;;;51.97;28.85;;;;;;;5.22;55.25;95982.19;5068225;28;20029;-76
2023/02/16 09:54:00;;;;;;;50.63;26.52;;;;;;;5.28;54.73;95984.47;5052843;28;20068;-76
2023/02/16 09:56:26;;;;;;;52.97;26.67;;;;;;;5.35;54.17;95988.47;5050318;28;20043;-76
2023/02/16 09:59:23;;;;;;;54.33;27.10;;;;;;;5.19;54.50;95977.16;5068629;28;20032;-76
2023/02/16 10:01:55;;;;;;;51.38;25.63;;;;;;;5.15;54.45;95985.91;5065266;28;20047;-75
2023/02/16 10:04:37;;;;;;;49.20;25.88;;;;;;;5.30;54.13;95974.13;5068156;28;20043;-76
2023/02/16 10:07:22;;;;;;;46.63;25.67;;;;;;;5.46;54.20;95966.53;5061735;28;20036;-76
2023/02/16 10:09:49;;;;;;;43.42;24.92;;;;;;;5.32;54.37;95962.84;5064247;28;20127;-76
2023/02/16 10:12:18;;;;;;;44.78;25.52;;;;;;;5.36;53.97;95948.09;5084480;28;20044;-76
2023/02/16 10:14:57;;;;;;;54.80;28.42;;;;;;;5.52;53.92;95966.28;5034336;28;20048;-76
2023/02/16 10:17:36;;;;;;;45.65;27.25;;;;;;;5.67;53.86;95957.03;5050708;28;20031;-76
2023/02/16 10:20:22;;;;;;;45.25;24.95;;;;;;;5.63;54.21;95956.34;5069290;28;20596;-76
2023/02/16 10:22:48;;;;;;;43.60;25.73;;;;;;;5.57;53.74;95931.66;5068446;28;20036;-76
2023/02/16 10:25:17;;;;;;;45.50;24.92;;;;;;;5.65;53.43;95949.34;5048615;28;20048;-75
2023/02/16 10:27:46;;;;;;;43.08;23.27;;;;;;;5.81;53.44;95934.84;5061579;28;20062;-76
2023/02/16 10:30:20;;;;;;;45.22;24.33;;;;;;;5.74;53.67;95943.78;5048899;28;20033;-76
2023/02/16 10:33:29;;;;;;;43.25;24.25;;;;;;;5.99;53.24;95945.22;5070872;28;20035;-75
2023/02/16 10:36:00;;;;;;;42.90;24.05;;;;;;;5.93;52.90;95930.03;4960728;28;20042;-75
2023/02/16 10:39:22;;;;;;;40.78;24.88;;;;;;;5.98;52.71;95902.31;4938932;28;20597;-76
2023/02/16 10:42:28;;;;;;;49.58;25.70;;;;;;;6.28;52.86;95932.72;4985684;28;20129;-75
2023/02/16 10:44:59;;;;;;;43.80;24.35;;;;;;;6.50;52.04;95933.34;4961432;28;20034;-76
2023/02/16 10:47:36;;;;;;;42.50;24.60;;;;;;;6.61;51.45;95928.50;5041668;28;20467;-76
2023/02/16 10:50:02;;;;;;;42.80;24.65;;;;;;;6.45;51.60;95906.91;5052340;28;20052;-76
2023/02/16 10:52:30;;;;;;;42.38;24.52;;;;;;;6.45;51.99;95919.81;5069701;28;20029;-76
2023/02/16 10:54:55;;;;;;;43.72;25.17;;;;;;;6.52;52.13;95908.31;5048240;28;20025;-76
2023/02/16 10:57:26;;;;;;;48.47;25.63;;;;;;;6.59;52.09;95909.66;5032809;28;20098;-76
2023/02/16 10:59:51;;;;;;;45.88;25.33;;;;;;;6.83;51.89;95910.19;5048750;28;20033;-76
2023/02/16 11:02:25;;;;;;;44.35;24.98;;;;;;;6.87;51.49;95906.50;5032267;28;20029;-76
2023/02/16 11:04:51;;;;;;;41.92;24.50;;;;;;;6.99;51.22;95899.88;5036682;28;20057;-76
2023/02/16 11:07:18;;;;;;;43.75;25.67;;;;;;;6.96;51.12;95889.69;5032673;28;20556;-76
2023/02/16 11:09:45;;;;;;;41.55;25.15;;;;;;;6.81;51.72;95885.34;5049299;28;20119;-76
2023/02/16 11:12:24;;;;;;;42.08;25.02;;;;;;;6.92;51.34;95876.13;5016030;28;20115;-76
2023/02/16 11:14:52;;;;;;;40.58;25.05;;;;;;;7.06;50.93;95890.06;5046953;28;20521;-76
2023/02/16 11:17:18;;;;;;;38.28;24.27;;;;;;;7.06;51.33;95885.75;5034233;28;20032;-76
2023/02/16 11:20:05;;;;;;;43.78;26.00;;;;;;;7.06;50.97;95882.31;5050521;28;20412;-75
2023/02/16 11:22:36;;;;;;;44.55;24.63;;;;;;;7.16;50.93;95876.59;5053741;28;20475;-75
2023/02/16 11:25:21;;;;;;;42.92;24.55;;;;;;;7.34;50.32;95882.53;5050271;28;20036;-76
2023/02/16 11:27:53;;;;;;;41.97;25.00;;;;;;;7.35;50.42;95880.78;5050467;28;20090;-76
2023/02/16 11:30:26;;;;;;;42.00;24.63;;;;;;;7.37;49.50;95873.78;5051493;28;20060;-76
2023/02/16 11:32:55;;;;;;;39.78;23.15;;;;;;;7.48;49.39;95866.28;5049105;28;20028;-75
2023/02/16 11:35:23;;;;;;;40.65;23.27;;;;;;;7.43;49.90;95864.88;5053977;28;20484;-76
2023/02/16 11:37:48;;;;;;;38.00;23.20;;;;;;;7.67;49.83;95853.19;5071703;28;20056;-76
2023/02/16 11:40:18;;;;;;;38.22;22.98;;;;;;;7.55;48.15;95839.19;5046793;28;20037;-76
2023/02/16 11:42:48;;;;;;;36.42;22.13;;;;;;;7.80;47.76;95853.34;5069857;28;20036;-76
2023/02/16 11:45:33;;;;;;;39.75;23.17;;;;;;;8.10;48.16;95863.75;5053847;28;20042;-75
2023/02/16 11:48:06;;;;;;;35.00;22.08;;;;;;;8.10;47.17;95860.31;5071623;28;20032;-76
2023/02/16 11:50:37;;;;;;;34.10;19.92;;;;;;;8.15;45.93;95855.72;5058276;28;20111;-75
2023/02/16 11:53:08;;;;;;;38.65;21.48;;;;;;;8.09;46.82;95853.50;5033791;28;20028;-76
2023/02/16 11:55:35;;;;;;;40.10;23.45;;;;;;;8.27;46.48;95850.69;5049823;28;20044;-76
2023/02/16 11:58:24;;;;;;;36.22;21.23;;;;;;;8.33;46.50;95849.50;5017782;28;20033;-76
2023/02/16 12:01:27;;;;;;;36.38;21.02;;;;;;;8.19;46.60;95844.25;5069508;28;20115;-76
2023/02/16 12:04:07;;;;;;;29.67;18.25;;;;;;;8.38;45.26;95847.47;5069697;28;20040;-75
2023/02/16 12:06:38;;;;;;;30.55;17.95;;;;;;;8.48;44.82;95838.28;5069315;28;20028;-75
2023/02/16 12:09:32;;;;;;;30.70;18.42;;;;;;;8.55;44.33;95837.91;5057732;28;20040;-76
2023/02/16 12:12:01;;;;;;;32.58;20.30;;;;;;;8.71;44.98;95828.31;5053611;28;20037;-75
2023/02/16 12:14:33;;;;;;;32.75;19.45;;;;;;;8.68;44.39;95825.91;5068812;28;20116;-74